Latest Weather Observations for Kalumburu

IDW60801

Issued at 9:33 pm WST Thursday 22 August 2019 (issued every 10 minutes, with the page automatically refreshed every 10 minutes)

About weather observations | Map of weather stations | Latest weather observations for WA | Other Formats
Station Details ID: 001019 Name: KALUMBURU Lat: -14.30 Lon: 126.65 Height: 23.0 m
Data from the previous 72 hours. | See also: Recent months at Kalumburu
Date/Time
WST
Temp
°C
App
Temp
°C
Dew
Point
°C
Rel
Hum
%
Delta-T
°C
Wind Press
QNH
hPa
Press
MSL
hPa
Rain since
9am
mm
Dir  Spd
km/h
Gust
km/h
Spd
kts
Gust
kts
22/09:30pm 20.1 18.0 3.8 34 7.8 S 4 9 2 5 1017.5 1017.4 0.0
22/09:00pm 21.9 20.0 0.4 24 9.7 CALM 0 0 0 0 1017.5 1017.4 0.0
22/08:30pm 23.1 20.5 0.9 23 10.2 NE 4 7 2 4 1017.4 1017.3 0.0
22/08:00pm 22.9 21.0 0.7 23 10.2 CALM 0 6 0 3 1017.2 1017.1 0.0
22/07:30pm 24.3 22.4 0.6 21 11.0 CALM 0 6 0 3 1016.8 1016.7 0.0
22/07:00pm 26.8 22.4 0.5 18 12.4 NE 13 20 7 11 1016.5 1016.4 0.0
22/06:30pm 26.8 23.7 1.3 19 12.2 NE 7 13 4 7 1016.0 1015.9 0.0
22/06:00pm 27.8 24.6 0.5 17 12.9 ENE 7 11 4 6 1015.5 1015.4 0.0
22/05:30pm 29.0 24.9 -0.2 15 13.8 E 11 19 6 10 1015.3 1015.2 0.0
22/05:00pm 30.1 26.4 -0.3 14 14.4 ENE 9 17 5 9 1015.0 1014.9 0.0
22/04:30pm 31.4 26.9 -0.3 13 15.2 E 13 20 7 11 1014.7 1014.6 0.0
22/04:00pm 32.1 28.3 -0.9 12 15.7 ESE 9 15 5 8 1014.3 1014.2 0.0
22/03:30pm 32.8 29.1 -0.3 12 16.0 ENE 9 17 5 9 1014.0 1013.9 0.0
22/03:00pm 33.5 30.0 -1.0 11 16.6 ESE 7 19 4 10 1013.9 1013.8 0.0
22/02:30pm 32.8 28.1 -1.5 11 16.3 NE 13 28 7 15 1013.8 1013.7 0.0
22/02:00pm 33.9 29.7 -0.7 11 16.8 ENE 11 30 6 16 1014.1 1014.0 0.0
22/01:30pm 33.0 27.2 -1.4 11 16.4 NNE 19 28 10 15 1014.4 1014.3 0.0
22/01:00pm 32.8 28.5 -1.5 11 16.3 ESE 11 19 6 10 1014.7 1014.6 0.0
22/12:30pm 32.1 28.1 -2.0 11 16.0 E 9 15 5 8 1015.1 1015.0 0.0
22/12:00pm 32.1 27.4 -2.0 11 16.0 NE 13 20 7 11 1015.6 1015.5 0.0
22/11:30am 32.0 26.5 -2.1 11 15.9 NE 17 26 9 14 1016.1 1016.0 0.0
22/11:00am 31.4 25.8 -2.6 11 15.7 E 17 30 9 16 1016.7 1016.6 0.0
22/10:30am 30.9 24.7 -3.0 11 15.5 E 20 32 11 17 1017.2 1017.1 0.0
22/10:00am 31.2 25.6 -2.7 11 15.6 E 17 35 9 19 1017.5 1017.4 0.0
22/09:30am 30.0 24.3 -3.6 11 15.1 ESE 17 24 9 13 1017.8 1017.7 0.0
22/09:00am 28.8 23.0 -4.6 11 14.6 E 17 30 9 16 1017.9 1017.8 0.0
22/08:30am 27.5 21.6 -5.6 11 14.0 ESE 17 35 9 19 1018.1 1018.0 0.0
22/08:00am 26.5 21.3 -6.3 11 13.6 SE 13 26 7 14 1018.3 1018.2 0.0
22/07:30am 24.9 20.5 -5.4 13 12.6 SSE 9 19 5 10 1018.3 1018.2 0.0
22/07:00am 22.9 19.1 -5.1 15 11.5 S 6 11 3 6 1018.2 1018.1 0.0
22/06:30am 20.4 16.8 -4.0 19 10.0 SSW 6 9 3 5 1018.0 1017.9 0.0
22/06:00am 19.2 15.5 -5.0 19 9.6 SSW 6 9 3 5 1017.5 1017.4 0.0
22/05:30am 18.8 15.5 -4.0 21 9.2 S 4 7 2 4 1017.3 1017.2 0.0
22/05:00am 19.4 16.4 -5.5 18 9.8 S 2 7 1 4 1017.0 1016.9 0.0
22/04:30am 20.7 16.7 -5.2 17 10.4 SSE 7 11 4 6 1016.8 1016.7 0.0
22/04:00am 20.6 16.6 -5.3 17 10.3 SSE 7 15 4 8 1016.6 1016.5 0.0
22/03:30am 21.2 16.9 -4.8 17 10.6 SSE 9 20 5 11 1016.3 1016.2 0.0
22/03:00am 21.9 17.3 -4.2 17 10.8 SE 11 20 6 11 1016.2 1016.1 0.0
22/02:30am 19.4 17.0 -3.5 21 9.4 CALM 0 6 0 3 1016.2 1016.1 0.0
22/02:00am 21.1 17.4 -4.1 18 10.3 SSE 6 11 3 6 1016.2 1016.1 0.0
22/01:30am 20.7 17.1 -3.7 19 10.1 SSE 6 11 3 6 1016.4 1016.3 0.0
22/01:00am 19.7 16.5 -3.2 21 9.4 ESE 4 13 2 7 1016.4 1016.3 0.0
22/12:30am 20.1 16.9 -3.5 20 9.7 ESE 4 9 2 5 1016.6 1016.5 0.0
22/12:00am 21.2 17.6 -4.0 18 10.4 E 6 11 3 6 1016.6 1016.5 0.0
 
Date/Time
WST
Temp
°C
App
Temp
°C
Dew
Point
°C
Rel
Hum
%
Delta-T
°C
Wind Press
QNH
hPa
Press
MSL
hPa
Rain since
9am
mm
Dir  Spd
km/h
Gust
km/h
Spd
kts
Gust
kts
21/11:30pm 21.7 17.9 -3.6 18 10.6 ESE 7 13 4 7 1016.7 1016.6 0.0
21/11:00pm 22.0 18.2 -3.4 18 10.7 ESE 7 13 4 7 1016.8 1016.7 0.0
21/10:30pm 22.0 18.3 -2.7 19 10.5 SE 7 11 4 6 1016.9 1016.8 0.0
21/10:00pm 22.4 18.7 -3.1 18 10.8 SE 7 13 4 7 1016.9 1016.8 0.0
21/09:30pm 21.6 18.5 -3.0 19 10.4 ESE 4 9 2 5 1016.8 1016.7 0.0
21/09:00pm 22.4 19.2 -3.1 18 10.8 SSE 4 9 2 5 1016.7 1016.6 0.0
21/08:30pm 23.4 19.7 -3.0 17 11.3 SE 7 13 4 7 1016.6 1016.5 0.0
21/08:00pm 23.7 19.7 -2.0 18 11.3 ESE 9 13 5 7 1016.2 1016.1 0.0
21/07:30pm 23.2 19.7 -1.0 20 10.8 ESE 7 11 4 6 1015.9 1015.8 0.0
21/07:00pm 23.2 19.8 -1.7 19 10.9 ESE 6 9 3 5 1015.4 1015.3 0.0
21/06:30pm 24.0 20.6 -1.8 18 11.4 SE 6 11 3 6 1014.8 1014.7 0.0
21/06:00pm 25.7 22.2 -2.8 15 12.5 ESE 6 9 3 5 1014.5 1014.4 0.0
21/05:30pm 27.6 23.5 -3.3 13 13.7 ESE 9 20 5 11 1013.9 1013.8 0.0
21/05:00pm 29.0 24.1 -3.2 12 14.4 SE 13 20 7 11 1013.5 1013.4 0.0
21/04:30pm 30.1 25.2 -3.6 11 15.1 SE 13 24 7 13 1013.2 1013.1 0.0
21/04:00pm 30.8 26.3 -3.0 11 15.4 ESE 11 19 6 10 1013.0 1012.9 0.0
21/03:30pm 31.4 26.6 -2.6 11 15.7 ESE 13 20 7 11 1013.0 1012.9 0.0
21/03:00pm 31.8 26.7 -2.3 11 15.9 ESE 15 26 8 14 1013.1 1013.0 0.0
21/02:30pm 31.3 26.1 -2.6 11 15.6 ESE 15 24 8 13 1013.3 1013.2 0.0
21/02:00pm 31.3 26.5 -2.6 11 15.6 ESE 13 22 7 12 1013.6 1013.5 0.0
21/01:30pm 31.2 25.6 -2.7 11 15.6 ESE 17 30 9 16 1014.1 1014.0 0.0
21/01:00pm 30.6 24.4 -3.2 11 15.3 ESE 20 33 11 18 1014.5 1014.4 0.0
21/12:30pm 30.9 25.3 -3.0 11 15.5 E 17 26 9 14 1015.1 1015.0 0.0
21/12:00pm 30.1 24.8 -3.6 11 15.1 SSE 15 32 8 17 1015.4 1015.3 0.0
21/11:30am 30.2 25.3 -3.5 11 15.2 SE 13 24 7 13 1016.1 1016.0 0.0
21/11:00am 28.9 22.7 -4.5 11 14.6 SE 19 32 10 17 1016.8 1016.7 0.0
21/10:30am 28.8 22.9 -5.8 10 14.8 SE 17 28 9 15 1017.4 1017.3 0.0
21/10:00am 28.3 22.9 -4.9 11 14.3 SE 15 28 8 15 1018.0 1017.9 0.0
21/09:30am 26.8 20.2 -7.3 10 13.9 ESE 20 33 11 18 1018.3 1018.2 0.0
21/09:00am 27.6 21.7 -5.5 11 14.0 SE 17 28 9 15 1018.7 1018.6 0.0
21/08:30am 25.9 18.6 -6.8 11 13.4 ESE 24 37 13 20 1018.7 1018.6 0.0
21/08:00am 24.9 18.2 -7.5 11 12.9 SE 20 33 11 18 1018.8 1018.7 0.0
21/07:30am 24.5 19.3 -6.7 12 12.6 ESE 13 20 7 11 1018.7 1018.6 0.0
21/07:00am 23.5 18.2 -7.5 12 12.2 SE 13 24 7 13 1018.4 1018.3 0.0
21/06:30am 22.4 17.5 -7.3 13 11.6 SSE 11 20 6 11 1018.1 1018.0 0.0
21/06:00am 21.8 16.8 -7.8 13 11.4 SSE 11 22 6 12 1017.9 1017.8 0.0
21/05:30am 22.2 17.3 -7.5 13 11.5 SSE 11 19 6 10 1017.6 1017.5 0.0
21/05:00am 22.0 17.4 -7.6 13 11.4 SSE 9 19 5 10 1017.0 1016.9 0.0
21/04:30am 22.3 17.7 -7.4 13 11.6 S 9 15 5 8 1016.7 1016.6 0.0
21/04:00am 22.4 18.4 -7.3 13 11.6 S 6 13 3 7 1016.5 1016.4 0.0
21/03:30am 22.9 17.9 -8.0 12 12.0 SSE 11 20 6 11 1016.2 1016.1 0.0
21/03:00am 22.9 18.8 -6.9 13 11.8 S 7 15 4 8 1016.1 1016.0 0.0
21/02:30am 23.4 19.3 -6.5 13 12.0 S 7 20 4 11 1016.1 1016.0 0.0
21/02:00am 23.7 19.6 -6.3 13 12.1 SSE 7 13 4 7 1016.1 1016.0 0.0
21/01:30am 24.1 19.3 -6.0 13 12.3 SE 11 22 6 12 1016.2 1016.1 0.0
21/01:00am 24.4 19.6 -5.8 13 12.4 SE 11 20 6 11 1016.3 1016.2 0.0
21/12:30am 24.0 20.6 -5.1 14 12.1 SSE 4 9 2 5 1016.5 1016.4 0.0
21/12:00am 25.0 20.7 -5.3 13 12.6 SE 9 19 5 10 1016.7 1016.6 0.0
 
Date/Time
WST
Temp
°C
App
Temp
°C
Dew
Point
°C
Rel
Hum
%
Delta-T
°C
Wind Press
QNH
hPa
Press
MSL
hPa
Rain since
9am
mm
Dir  Spd
km/h
Gust
km/h
Spd
kts
Gust
kts
20/11:30pm 24.8 20.9 -4.5 14 12.4 SSE 7 19 4 10 1017.0 1016.9 0.0
20/11:00pm 24.7 20.9 -3.6 15 12.1 S 7 13 4 7 1017.2 1017.1 0.0
20/10:30pm 23.5 20.8 -2.2 18 11.2 SSW 2 7 1 4 1017.3 1017.2 0.0
20/10:00pm 23.5 21.0 -0.7 20 10.8 WSW 2 6 1 3 1017.3 1017.2 0.0
20/09:30pm 25.2 22.3 -0.8 18 11.8 SSE 4 9 2 5 1017.1 1017.0 0.0
20/09:00pm 25.7 22.3 -0.4 18 12.0 SSE 7 13 4 7 1017.0 1016.9 0.0
20/08:30pm 26.0 22.8 0.6 19 11.9 SE 7 15 4 8 1017.0 1016.9 0.0
20/08:00pm 26.2 23.0 0.8 19 12.0 ESE 7 11 4 6 1016.8 1016.7 0.0
20/07:30pm 27.0 23.5 1.4 19 12.3 ESE 9 17 5 9 1016.5 1016.4 0.0
20/07:00pm 26.9 23.4 1.3 19 12.2 ESE 9 13 5 7 1016.1 1016.0 0.0
20/06:30pm 27.7 24.5 0.5 17 12.9 ESE 7 15 4 8 1015.6 1015.5 0.0
20/06:00pm 28.1 24.9 0.8 17 13.0 ESE 7 13 4 7 1015.1 1015.0 0.0
20/05:30pm 29.6 25.4 -0.7 14 14.3 ESE 11 20 6 11 1014.7 1014.6 0.0
20/05:00pm 31.2 26.8 0.6 14 14.9 ESE 13 24 7 13 1014.4 1014.3 0.0
20/04:30pm 32.1 28.1 0.2 13 15.5 E 11 20 6 11 1014.1 1014.0 0.0
20/04:00pm 32.7 28.0 0.7 13 15.8 ESE 15 24 8 13 1013.9 1013.8 0.0
20/03:30pm 32.9 28.6 0.9 13 15.8 E 13 26 7 14 1013.9 1013.8 0.0
20/03:00pm 33.2 28.7 0.0 12 16.2 SE 13 20 7 11 1013.9 1013.8 0.0
20/02:30pm 33.7 29.3 0.4 12 16.4 E 13 22 7 12 1014.0 1013.9 0.0
20/02:00pm 33.4 28.4 -1.0 11 16.5 ESE 15 24 8 13 1014.3 1014.2 0.0
20/01:30pm 33.5 29.3 -1.0 11 16.6 ESE 11 20 6 11 1014.6 1014.5 0.0
20/01:00pm 33.5 28.1 -1.0 11 16.6 ESE 17 30 9 16 1015.1 1015.0 0.0
20/12:30pm 32.8 26.8 -1.5 11 16.3 ESE 20 32 11 17 1015.6 1015.5 0.0
20/12:00pm 32.8 27.0 -1.5 11 16.3 ESE 19 32 10 17 1015.8 1015.7 0.0
20/11:30am 32.7 27.8 -0.4 12 16.0 ESE 15 26 8 14 1016.4 1016.3 0.0
20/11:00am 32.8 27.4 -1.5 11 16.3 ESE 17 35 9 19 1017.1 1017.0 0.0
20/10:30am 31.9 25.8 -2.2 11 15.9 ESE 20 32 11 17 1017.6 1017.5 0.0
20/10:00am 31.5 25.6 -2.5 11 15.7 ESE 19 33 10 18 1018.0 1017.9 0.0
20/09:30am 30.7 24.1 -3.1 11 15.4 E 22 39 12 21 1018.6 1018.5 0.0
20/09:00am 30.2 24.0 -3.5 11 15.1 ESE 20 32 11 17 1018.9 1018.8 0.0
20/08:30am 29.1 22.0 -4.3 11 14.7 ESE 24 39 13 21 1018.9 1018.8 0.0
20/08:00am 28.2 21.2 -3.9 12 14.1 ESE 24 35 13 19 1018.9 1018.8 0.0
20/07:30am 27.4 21.6 -4.5 12 13.8 SE 17 30 9 16 1018.5 1018.4 0.0
20/07:00am 26.5 21.5 -4.1 13 13.2 SE 13 22 7 12 1018.2 1018.1 0.0
20/06:30am 25.7 20.7 -4.7 13 12.9 SE 13 20 7 11 1018.0 1017.9 0.0
20/06:00am 25.6 20.5 -4.8 13 12.8 SSE 13 20 7 11 1017.7 1017.6 0.0
20/05:30am 25.7 20.8 -3.8 14 12.7 SE 13 24 7 13 1017.2 1017.1 0.0
20/05:00am 26.3 20.9 -4.3 13 13.1 SSE 15 24 8 13 1016.5 1016.4 0.0
20/04:30am 26.4 21.5 -3.2 14 13.0 SE 13 20 7 11 1016.1 1016.0 0.0
20/04:00am 26.7 21.8 -3.0 14 13.1 SE 13 24 7 13 1015.6 1015.5 0.0
20/03:30am 26.9 21.8 -1.9 15 13.0 SE 15 28 8 15 1015.3 1015.2 0.0
20/03:00am 27.5 22.2 -0.5 16 13.0 ESE 17 37 9 20 1015.2 1015.1 0.0
20/02:30am 27.9 22.3 1.4 18 12.8 ESE 20 41 11 22 1015.1 1015.0 0.0
20/02:00am 28.1 22.4 3.0 20 12.5 ESE 22 35 12 19 1015.0 1014.9 0.0
20/01:30am 28.2 23.8 4.5 22 12.1 ESE 17 28 9 15 1015.1 1015.0 0.0
20/01:00am 28.5 24.2 5.4 23 12.0 SE 17 26 9 14 1015.3 1015.2 0.0
20/12:30am 24.5 22.9 8.9 37 8.4 WSW 7 11 4 6 1015.4 1015.3 0.0
20/12:00am 24.9 23.6 9.2 37 8.5 WSW 6 7 3 4 1015.4 1015.3 0.0
 
Date/Time
WST
Temp
°C
App
Temp
°C
Dew
Point
°C
Rel
Hum
%
Delta-T
°C
Wind Press
QNH
hPa
Press
MSL
hPa
Rain since
9am
mm
Dir  Spd
km/h
Gust
km/h
Spd
kts
Gust
kts
19/11:30pm 25.2 24.1 9.9 38 8.4 SSW 6 9 3 5 1015.6 1015.5 0.0
19/11:00pm 24.5 23.5 11.1 43 7.5 SSW 7 11 4 6 1015.7 1015.6 0.0
19/10:30pm 22.1 22.6 12.9 56 5.3 NNW 2 7 1 4 1015.8 1015.7 0.0
19/10:00pm 21.8 22.9 13.4 59 4.8 CALM 0 0 0 0 1015.7 1015.6 0.0

Other formats

Comma delimited format used in spreadsheet applications
http://www.bom.gov.au/fwo/IDW60801/IDW60801.94100.axf

JavaScript Object Notation format (JSON) in row-major order
http://www.bom.gov.au/fwo/IDW60801/IDW60801.94100.json

Data quality

Most of these data are generated automatically and are frequently updated. Quality checks on data are not normally performed. It is possible for incorrect values to appear. Refer to information at About Latest Weather Observations and please check the disclaimer before using these data.